CYKJ

Details ICAO CYKJ
Name Key Lake
Region Canada
Timezone America/Regina (UTC-6.0)
Plans Departing 1
Arriving 1
Stats Elevation 1,670 ft / 509 m (AMSL)
Location 57.254169° -105.617500°
Runways 1
Magnetic Variation 9.926° E
Sunrise 2017-12-11 15:34:05 UTC / 2017-12-11 09:34:05 Local
Sunset 2017-12-11 22:20:32 UTC / 2017-12-11 16:20:32 Local
Advertisement - Login to hide

Runways

ID Width Length Bearing (true) Bearing (mag) Surface Threshold Offset Overrun Length
03 200 ft / 61 m 5,285 ft / 1,611 m 42.99° 33.06° Gravel 0 ft / 0 m 0 ft / 0 m
21 200 ft / 61 m 5,285 ft / 1,611 m 223.01° 213.08° Gravel 0 ft / 0 m 0 ft / 0 m

Map

Weather


0- 5 10 15 20 25 30 35+ Temperature / ° C

Clouds and Precipitation
Forecast for 2017-12-11 12:00 UTC. Updated 11 minutes ago

Ground ~20,000 ft ~40,000 ft Winds

METAR

CYKJ 110737Z AUTO 31003KT 290V360 9SM -SN OVC009 M13/M14 A3015 RMK SLP251

TAF

Not found
Warning: Do not use this data for real-world aviation or navigation. No guarantee of current accuracy is given.